createdAt,value
2019-05-17T00:00:09.622Z,99.30
2019-05-17T00:02:41.015Z,99.40
2019-05-17T00:05:09.960Z,99.70
2019-05-17T00:07:39.641Z,99.60
2019-05-17T00:10:09.919Z,99.90
2019-05-17T00:12:39.720Z,99.70
2019-05-17T00:15:08.933Z,99.70
2019-05-17T00:17:38.482Z,99.90
2019-05-17T00:20:09.083Z,99.90
2019-05-17T00:22:38.917Z,99.90
2019-05-17T00:25:09.426Z,99.90
2019-05-17T00:27:39.244Z,99.90
2019-05-17T00:30:08.358Z,99.90
2019-05-17T00:32:38.051Z,99.90
2019-05-17T00:35:08.251Z,99.90
2019-05-17T00:37:38.098Z,99.80
2019-05-17T00:40:07.407Z,99.90
2019-05-17T00:42:37.527Z,99.90
2019-05-17T00:45:08.903Z,99.90
2019-05-17T00:47:41.806Z,99.90
2019-05-17T00:50:10.685Z,99.90
2019-05-17T00:52:40.409Z,99.90
2019-05-17T00:55:10.301Z,99.90
2019-05-17T00:57:39.303Z,99.90
2019-05-17T01:00:09.625Z,99.90
2019-05-17T01:02:39.401Z,99.90
2019-05-17T01:05:09.086Z,99.90
2019-05-17T01:07:38.818Z,99.80
2019-05-17T01:10:09.349Z,99.90
2019-05-17T01:12:39.089Z,99.90
2019-05-17T01:15:09.159Z,99.90
2019-05-17T01:17:38.815Z,99.90
2019-05-17T01:20:11.366Z,99.90
2019-05-17T01:22:41.045Z,99.90
2019-05-17T01:25:11.564Z,99.90
2019-05-17T01:27:41.352Z,99.90
2019-05-17T01:30:11.706Z,99.90
2019-05-17T01:32:41.557Z,99.50
2019-05-17T01:35:10.682Z,99.90
2019-05-17T01:37:40.297Z,99.90
2019-05-17T01:40:10.498Z,99.90
2019-05-17T01:42:40.288Z,99.90
2019-05-17T01:45:10.404Z,99.90
2019-05-17T01:47:40.122Z,99.90
2019-05-17T01:50:10.647Z,99.90
2019-05-17T01:52:40.476Z,99.90
2019-05-17T01:55:10.432Z,99.90
2019-05-17T01:57:39.371Z,99.90
2019-05-17T02:00:10.243Z,99.90
2019-05-17T02:02:41.511Z,99.90
2019-05-17T02:05:11.656Z,99.90
2019-05-17T02:07:41.435Z,99.90
2019-05-17T02:10:11.632Z,99.90
2019-05-17T02:12:41.292Z,99.90
2019-05-17T02:15:12.973Z,99.90
2019-05-17T02:17:42.775Z,99.90
2019-05-17T02:20:13.359Z,99.90
2019-05-17T02:22:42.965Z,99.90
2019-05-17T02:25:13.556Z,99.90
2019-05-17T02:27:44.772Z,99.90
2019-05-17T02:30:16.666Z,99.90
2019-05-17T02:32:46.852Z,99.90
2019-05-17T02:35:16.594Z,99.90
2019-05-17T02:37:46.328Z,99.90
2019-05-17T02:40:17.630Z,99.90
2019-05-17T02:42:47.354Z,99.90
2019-05-17T02:45:17.913Z,98.70
2019-05-17T02:47:47.675Z,98.20
2019-05-17T02:50:18.846Z,98.30
2019-05-17T02:52:48.639Z,98.80
2019-05-17T02:55:18.481Z,99.50
2019-05-17T02:57:48.144Z,98.00
2019-05-17T03:00:18.072Z,98.60
2019-05-17T03:02:46.971Z,99.00
2019-05-17T03:05:16.675Z,99.10
2019-05-17T03:07:46.367Z,99.30
2019-05-17T03:10:24.160Z,99.50
2019-05-17T03:12:47.581Z,99.50
2019-05-17T03:15:17.421Z,99.60
2019-05-17T03:17:46.344Z,99.50
2019-05-17T03:20:16.625Z,99.60
2019-05-17T03:22:46.336Z,99.40
2019-05-17T03:25:16.306Z,99.40
2019-05-17T03:27:45.985Z,99.70
2019-05-17T03:30:18.375Z,99.20
2019-05-17T03:32:48.958Z,99.30
2019-05-17T03:35:19.095Z,99.00
2019-05-17T03:37:47.976Z,99.10
2019-05-17T03:40:55.438Z,99.40
2019-05-17T03:42:53.559Z,99.20
2019-05-17T03:45:22.833Z,99.50
2019-05-17T03:47:53.225Z,99.60
2019-05-17T03:50:23.163Z,99.40
2019-05-17T03:52:53.738Z,99.80
2019-05-17T03:55:23.681Z,99.90
2019-05-17T03:57:53.652Z,99.90
2019-05-17T04:00:23.388Z,99.90
2019-05-17T04:02:53.904Z,99.90
2019-05-17T04:05:23.805Z,99.90
2019-05-17T04:07:53.992Z,99.90
2019-05-17T04:10:23.799Z,99.90
2019-05-17T04:12:53.269Z,99.90
2019-05-17T04:15:23.923Z,99.90
2019-05-17T04:17:54.933Z,99.90
2019-05-17T04:20:24.682Z,99.90
2019-05-17T04:22:55.141Z,99.60
2019-05-17T04:25:24.877Z,99.70
2019-05-17T04:27:54.641Z,99.30
2019-05-17T04:30:24.407Z,98.70
2019-05-17T04:32:54.123Z,98.30
2019-05-17T04:35:23.680Z,99.00
2019-05-17T04:37:53.432Z,99.00
2019-05-17T04:40:23.312Z,98.70
2019-05-17T04:42:54.544Z,98.90
2019-05-17T04:45:25.867Z,99.30
2019-05-17T04:47:55.648Z,99.20
2019-05-17T04:50:25.344Z,99.40
2019-05-17T04:52:55.007Z,99.50
2019-05-17T04:55:24.650Z,99.30
2019-05-17T04:57:54.824Z,99.50
2019-05-17T05:00:24.538Z,99.90
2019-05-17T05:02:54.188Z,99.50
2019-05-17T05:05:23.969Z,99.90
2019-05-17T05:07:53.806Z,99.90
2019-05-17T05:10:23.542Z,99.90
2019-05-17T05:12:53.247Z,99.90
2019-05-17T05:15:43.297Z,99.90
2019-05-17T05:18:13.235Z,99.90
2019-05-17T05:20:43.814Z,99.80
2019-05-17T05:23:13.777Z,99.80
2019-05-17T05:25:43.420Z,99.90
2019-05-17T05:28:13.113Z,99.90
2019-05-17T05:30:42.724Z,99.50
2019-05-17T05:33:12.939Z,98.70
2019-05-17T05:35:42.912Z,99.20
2019-05-17T05:38:13.153Z,98.60
2019-05-17T05:40:43.867Z,98.70
2019-05-17T05:43:13.430Z,98.00
2019-05-17T05:45:43.038Z,98.10
2019-05-17T05:48:13.112Z,97.80
2019-05-17T05:50:43.518Z,97.00
2019-05-17T05:53:13.339Z,96.50
2019-05-17T05:55:44.040Z,96.40
2019-05-17T05:58:14.992Z,96.80
2019-05-17T06:00:45.419Z,95.50
2019-05-17T06:03:15.094Z,95.20
2019-05-17T06:05:44.875Z,95.50
2019-05-17T06:08:18.956Z,94.60
2019-05-17T06:10:48.768Z,93.40
2019-05-17T06:13:25.652Z,94.90
2019-05-17T06:15:58.110Z,95.80
2019-05-17T06:18:33.323Z,93.60
2019-05-17T06:21:03.591Z,94.10
2019-05-17T06:23:33.391Z,94.40
2019-05-17T06:26:04.450Z,95.00
2019-05-17T06:28:34.452Z,94.10
2019-05-17T06:31:04.076Z,93.30
2019-05-17T06:33:34.901Z,91.70
2019-05-17T06:36:04.789Z,92.80
2019-05-17T06:38:34.475Z,92.20
2019-05-17T06:41:04.161Z,92.00
2019-05-17T06:43:34.839Z,90.30
2019-05-17T06:46:04.606Z,91.50
2019-05-17T06:48:34.292Z,92.60
2019-05-17T06:51:03.923Z,93.10
2019-05-17T06:53:33.560Z,92.90
2019-05-17T06:56:04.898Z,92.20
2019-05-17T06:58:34.727Z,94.40
2019-05-17T07:01:03.690Z,91.40
2019-05-17T07:03:33.344Z,90.70
2019-05-17T07:06:04.586Z,91.40
2019-05-17T07:08:34.192Z,90.40
2019-05-17T07:11:03.817Z,92.20
2019-05-17T07:13:34.536Z,89.00
2019-05-17T07:16:03.447Z,90.90
2019-05-17T07:18:33.148Z,92.60
2019-05-17T07:21:03.686Z,90.70
2019-05-17T07:23:33.452Z,90.70
2019-05-17T07:26:03.168Z,90.60
2019-05-17T07:28:32.095Z,91.80
2019-05-17T07:31:01.674Z,90.70
2019-05-17T07:33:31.262Z,85.40
2019-05-17T07:36:00.864Z,90.00
2019-05-17T07:38:30.479Z,88.30
2019-05-17T07:41:01.132Z,89.90
2019-05-17T07:43:30.675Z,87.70
2019-05-17T07:46:00.621Z,87.70
2019-05-17T07:48:31.554Z,80.20
2019-05-17T07:51:01.210Z,75.70
2019-05-17T07:53:30.932Z,75.30
2019-05-17T07:56:01.486Z,74.10
2019-05-17T07:58:31.034Z,75.50
2019-05-17T08:01:02.148Z,77.30
2019-05-17T08:03:31.981Z,78.10
2019-05-17T08:06:01.676Z,80.30
2019-05-17T08:08:31.491Z,83.10
2019-05-17T08:11:01.068Z,81.10
2019-05-17T08:13:33.704Z,80.20
2019-05-17T08:16:02.100Z,75.50
2019-05-17T08:18:31.640Z,81.70
2019-05-17T08:21:11.340Z,79.60
2019-05-17T08:23:40.328Z,76.40
2019-05-17T08:26:10.746Z,76.30
2019-05-17T08:28:40.788Z,76.20
2019-05-17T08:31:11.845Z,78.10
2019-05-17T08:33:44.108Z,74.50
2019-05-17T08:36:16.363Z,73.70
2019-05-17T08:38:49.995Z,73.00
2019-05-17T08:41:20.870Z,78.60
2019-05-17T08:43:52.373Z,77.00
2019-05-17T08:46:22.205Z,72.10
2019-05-17T08:48:53.846Z,71.60
2019-05-17T08:51:23.619Z,67.90
2019-05-17T08:53:52.455Z,72.40
2019-05-17T08:56:23.723Z,69.40
2019-05-17T08:58:53.454Z,76.80
2019-05-17T09:01:22.627Z,70.10
2019-05-17T09:03:53.414Z,65.10
2019-05-17T09:06:24.375Z,66.80
2019-05-17T09:08:54.013Z,67.10
2019-05-17T09:11:23.759Z,64.10
2019-05-17T09:13:58.015Z,67.00
2019-05-17T09:16:23.670Z,67.00
2019-05-17T09:18:52.571Z,66.70
2019-05-17T09:21:22.303Z,61.40
2019-05-17T09:23:51.172Z,62.80
2019-05-17T09:26:20.816Z,61.30
2019-05-17T09:28:50.660Z,68.60
2019-05-17T09:31:20.382Z,60.20
2019-05-17T09:33:50.355Z,61.60
2019-05-17T09:36:20.592Z,61.60
2019-05-17T09:38:50.311Z,58.50
2019-05-17T09:41:20.015Z,61.50
2019-05-17T09:43:51.148Z,60.60
2019-05-17T09:46:20.887Z,61.40
2019-05-17T09:48:50.436Z,62.60
2019-05-17T09:51:19.695Z,59.70
2019-05-17T09:53:49.739Z,57.30
2019-05-17T09:56:20.652Z,63.50
2019-05-17T09:58:50.573Z,60.90
2019-05-17T10:01:20.560Z,60.90
2019-05-17T10:03:50.745Z,63.00
2019-05-17T10:06:20.607Z,59.90
2019-05-17T10:08:50.376Z,61.30
2019-05-17T10:11:20.338Z,61.30
2019-05-17T10:13:50.212Z,56.90
2019-05-17T10:16:20.454Z,62.70
2019-05-17T10:18:50.344Z,62.80
2019-05-17T10:21:21.753Z,59.00
2019-05-17T10:23:51.450Z,56.90
2019-05-17T10:26:20.364Z,62.00
2019-05-17T10:28:51.601Z,61.70
2019-05-17T10:31:21.577Z,58.70
2019-05-17T10:33:51.385Z,59.50
2019-05-17T10:36:21.411Z,60.90
2019-05-17T10:38:51.375Z,60.10
2019-05-17T10:41:22.166Z,63.20
2019-05-17T10:43:51.874Z,59.90
2019-05-17T10:46:20.811Z,59.60
2019-05-17T10:48:50.396Z,59.70
2019-05-17T10:51:20.257Z,57.60
2019-05-17T10:53:53.949Z,59.00
2019-05-17T10:56:24.498Z,59.90
2019-05-17T10:58:54.128Z,60.20
2019-05-17T11:01:23.086Z,61.40
2019-05-17T11:03:52.658Z,56.80
2019-05-17T11:06:21.543Z,59.40
2019-05-17T11:08:51.258Z,58.70
2019-05-17T11:11:21.975Z,61.30
2019-05-17T11:13:53.000Z,62.90
2019-05-17T11:16:22.462Z,59.00
2019-05-17T11:18:54.348Z,66.80
2019-05-17T11:21:23.960Z,60.60
2019-05-17T11:23:52.851Z,62.80
2019-05-17T11:26:22.596Z,57.00
2019-05-17T11:28:52.376Z,62.20
2019-05-17T11:31:22.217Z,65.60
2019-05-17T11:33:52.058Z,65.40
2019-05-17T11:36:21.943Z,64.20
2019-05-17T11:38:56.428Z,64.40
2019-05-17T11:41:23.076Z,62.50
2019-05-17T11:43:52.881Z,60.20
2019-05-17T11:46:59.578Z,61.90
2019-05-17T11:49:30.397Z,64.00
2019-05-17T11:52:00.269Z,57.70
2019-05-17T11:54:30.067Z,60.70
2019-05-17T11:57:03.068Z,62.60
2019-05-17T11:59:32.864Z,64.20
2019-05-17T12:02:02.692Z,62.20
2019-05-17T12:04:32.560Z,60.80
2019-05-17T12:07:03.767Z,60.40
2019-05-17T12:09:37.722Z,62.20
2019-05-17T12:12:06.796Z,62.90
2019-05-17T12:14:37.590Z,62.80
2019-05-17T12:17:08.946Z,62.40
2019-05-17T12:19:38.634Z,63.20
2019-05-17T12:22:09.608Z,63.20
2019-05-17T12:24:38.986Z,66.00
2019-05-17T12:27:08.000Z,65.10
2019-05-17T12:29:37.769Z,58.70
2019-05-17T12:32:09.148Z,60.10
2019-05-17T12:34:38.838Z,56.00
2019-05-17T12:37:08.595Z,61.40
2019-05-17T12:39:40.070Z,61.20
2019-05-17T12:42:12.013Z,58.70
2019-05-17T12:44:43.654Z,63.60
2019-05-17T12:47:13.660Z,63.10
2019-05-17T12:49:44.860Z,57.70
2019-05-17T12:52:13.833Z,56.50
2019-05-17T12:54:43.645Z,57.10
2019-05-17T12:57:13.458Z,60.40
2019-05-17T12:59:44.815Z,53.40
2019-05-17T13:02:17.857Z,56.30
2019-05-17T13:04:47.584Z,54.40
2019-05-17T13:07:20.390Z,55.40
2019-05-17T13:09:52.629Z,51.80
2019-05-17T13:12:23.525Z,51.60
2019-05-17T13:14:53.321Z,51.40
2019-05-17T13:17:22.955Z,55.50
2019-05-17T13:19:51.815Z,50.80
2019-05-17T13:22:21.496Z,51.40
2019-05-17T13:24:51.337Z,51.90
2019-05-17T13:27:21.182Z,47.50
2019-05-17T13:29:51.061Z,50.30
2019-05-17T13:32:21.821Z,50.00
2019-05-17T13:34:51.615Z,49.60
2019-05-17T13:37:22.573Z,45.10
2019-05-17T13:39:53.486Z,45.80
2019-05-17T13:42:24.816Z,41.80
2019-05-17T13:44:54.707Z,43.10
2019-05-17T13:47:26.312Z,48.50
2019-05-17T13:49:57.591Z,46.00
2019-05-17T13:52:27.356Z,42.70
2019-05-17T13:55:00.265Z,47.50
2019-05-17T13:57:31.284Z,45.80
2019-05-17T14:00:01.188Z,47.20
2019-05-17T14:02:33.936Z,44.90
2019-05-17T14:05:05.143Z,44.30
2019-05-17T14:07:35.078Z,43.00
2019-05-17T14:10:06.547Z,45.00
2019-05-17T14:12:36.467Z,45.20
2019-05-17T14:15:09.530Z,40.20
2019-05-17T14:17:39.337Z,45.00
2019-05-17T14:20:09.167Z,42.30
2019-05-17T14:22:39.037Z,42.00
2019-05-17T14:25:09.306Z,43.70
2019-05-17T14:27:39.069Z,43.80
2019-05-17T14:30:08.962Z,41.70
2019-05-17T14:32:38.705Z,40.50
2019-05-17T14:35:08.494Z,35.70
2019-05-17T14:37:38.215Z,33.90
2019-05-17T14:40:08.147Z,36.70
2019-05-17T14:42:37.857Z,32.60
2019-05-17T14:45:08.139Z,26.40
2019-05-17T14:47:37.871Z,28.50
2019-05-17T14:50:07.813Z,31.70
2019-05-17T14:52:37.512Z,31.10
2019-05-17T14:55:07.318Z,28.80
2019-05-17T14:57:37.043Z,28.30
2019-05-17T15:00:07.434Z,27.50
2019-05-17T15:02:37.061Z,25.40
2019-05-17T15:05:07.514Z,25.00
2019-05-17T15:07:37.161Z,27.70
2019-05-17T15:10:07.672Z,24.40
2019-05-17T15:12:37.280Z,25.80
2019-05-17T15:15:08.289Z,25.80
2019-05-17T15:17:37.908Z,24.20
2019-05-17T15:20:08.480Z,27.10
2019-05-17T15:22:38.099Z,24.70
2019-05-17T15:25:08.124Z,23.10
2019-05-17T15:27:37.731Z,20.50
2019-05-17T15:30:07.626Z,23.20
2019-05-17T15:32:37.251Z,20.50
2019-05-17T15:35:07.853Z,26.60
2019-05-17T15:37:37.522Z,27.70
2019-05-17T15:40:07.703Z,28.20
2019-05-17T15:42:44.270Z,29.60
2019-05-17T15:45:08.831Z,37.10
2019-05-17T15:47:38.443Z,37.90
2019-05-17T15:50:08.421Z,36.10
2019-05-17T15:52:38.177Z,37.30
2019-05-17T15:55:08.760Z,30.90
2019-05-17T15:57:38.304Z,36.70
2019-05-17T16:00:08.666Z,32.60
2019-05-17T16:02:38.359Z,36.30
2019-05-17T16:05:08.133Z,34.30
2019-05-17T16:07:38.983Z,34.30
2019-05-17T16:10:09.303Z,42.50
2019-05-17T16:12:38.905Z,38.60
2019-05-17T16:15:09.326Z,43.90
2019-05-17T16:17:38.933Z,40.70
2019-05-17T16:20:10.190Z,41.40
2019-05-17T16:22:39.978Z,41.90
2019-05-17T16:25:09.655Z,46.30
2019-05-17T16:27:39.275Z,46.70
2019-05-17T16:30:09.071Z,45.00
2019-05-17T16:32:38.699Z,46.30
2019-05-17T16:35:08.476Z,42.00
2019-05-17T16:37:39.239Z,40.40
2019-05-17T16:40:09.375Z,42.40
2019-05-17T16:42:38.967Z,44.60
2019-05-17T16:45:10.926Z,37.50
2019-05-17T16:47:40.560Z,41.70
2019-05-17T16:50:10.363Z,40.40
2019-05-17T16:52:40.033Z,40.20
2019-05-17T16:55:09.660Z,42.30
2019-05-17T16:57:39.419Z,40.70
2019-05-17T17:00:29.733Z,45.40
2019-05-17T17:02:59.385Z,44.00
2019-05-17T17:05:29.010Z,45.30
2019-05-17T17:07:57.777Z,44.40
2019-05-17T17:10:27.388Z,44.60
2019-05-17T17:12:56.278Z,47.20
2019-05-17T17:15:25.834Z,46.20
2019-05-17T17:17:55.580Z,48.50
2019-05-17T17:20:24.521Z,48.20
2019-05-17T17:22:54.050Z,50.00
2019-05-17T17:25:24.653Z,52.10
2019-05-17T17:27:53.569Z,50.10
2019-05-17T17:30:23.363Z,51.90
2019-05-17T17:32:53.066Z,52.00
2019-05-17T17:35:21.919Z,52.70
2019-05-17T17:37:51.503Z,50.60
2019-05-17T17:40:21.120Z,53.70
2019-05-17T17:42:50.720Z,55.60
2019-05-17T17:45:23.898Z,57.70
2019-05-17T17:47:53.528Z,59.90
2019-05-17T17:50:22.289Z,60.50
2019-05-17T17:52:52.367Z,62.30
2019-05-17T17:55:21.987Z,55.80
2019-05-17T17:57:50.912Z,57.40
2019-05-17T18:00:22.133Z,55.90
2019-05-17T18:02:51.900Z,56.90
2019-05-17T18:05:24.782Z,59.60
2019-05-17T18:07:52.896Z,59.80
2019-05-17T18:10:31.508Z,57.30
2019-05-17T18:13:01.337Z,58.50
2019-05-17T18:15:37.811Z,58.40
2019-05-17T18:18:07.502Z,58.30
2019-05-17T18:20:36.329Z,56.40
2019-05-17T18:23:05.948Z,58.40
2019-05-17T18:25:35.650Z,59.90
2019-05-17T18:28:04.722Z,61.90
2019-05-17T18:30:34.723Z,60.00
2019-05-17T18:33:05.183Z,60.50
2019-05-17T18:35:35.283Z,61.30
2019-05-17T18:38:05.174Z,62.30
2019-05-17T18:40:34.973Z,65.70
2019-05-17T18:43:03.802Z,64.30
2019-05-17T18:45:33.511Z,68.90
2019-05-17T18:48:02.362Z,69.80
2019-05-17T18:50:31.971Z,69.90
2019-05-17T18:53:02.506Z,69.20
2019-05-17T18:55:33.275Z,69.10
2019-05-17T18:58:02.981Z,66.00
2019-05-17T19:00:32.600Z,66.30
2019-05-17T19:03:02.129Z,69.10
2019-05-17T19:05:31.806Z,75.30
2019-05-17T19:08:00.686Z,69.80
2019-05-17T19:10:30.312Z,73.90
2019-05-17T19:12:59.204Z,74.00
2019-05-17T19:15:28.755Z,78.00
2019-05-17T19:17:58.463Z,75.80
2019-05-17T19:20:28.033Z,72.40
2019-05-17T19:22:57.745Z,76.80
2019-05-17T19:25:27.344Z,78.60
2019-05-17T19:27:56.924Z,78.70
2019-05-17T19:30:26.941Z,73.90
2019-05-17T19:32:56.538Z,72.50
2019-05-17T19:35:27.293Z,74.90
2019-05-17T19:37:56.852Z,71.90
2019-05-17T19:40:26.577Z,71.10
2019-05-17T19:42:55.441Z,75.90
2019-05-17T19:45:24.932Z,68.50
2019-05-17T19:47:54.598Z,75.00
2019-05-17T19:50:24.298Z,73.60
2019-05-17T19:52:55.772Z,80.60
2019-05-17T19:55:25.495Z,75.40
2019-05-17T19:57:55.148Z,75.60
2019-05-17T20:00:24.850Z,76.90
2019-05-17T20:02:53.747Z,79.10
2019-05-17T20:05:23.496Z,80.80
2019-05-17T20:07:53.264Z,77.90
2019-05-17T20:10:23.228Z,80.80
2019-05-17T20:12:52.908Z,77.40
2019-05-17T20:15:34.156Z,75.00
2019-05-17T20:17:57.178Z,80.20
2019-05-17T20:20:26.802Z,82.70
2019-05-17T20:24:04.801Z,81.50
2019-05-17T20:26:35.250Z,81.00
2019-05-17T20:29:36.207Z,85.00
2019-05-17T20:32:07.964Z,82.10
2019-05-17T20:34:39.259Z,77.10
2019-05-17T20:37:18.967Z,85.30
2019-05-17T20:39:53.529Z,84.00
2019-05-17T20:42:23.121Z,82.70
2019-05-17T20:44:52.861Z,79.30
2019-05-17T20:47:22.448Z,79.80
2019-05-17T20:49:52.070Z,80.80
2019-05-17T20:52:21.706Z,75.30
2019-05-17T20:54:51.335Z,78.30
2019-05-17T20:57:20.934Z,78.50
2019-05-17T20:59:50.499Z,75.40
2019-05-17T21:02:20.130Z,78.30
2019-05-17T21:04:49.720Z,79.80
2019-05-17T21:07:20.659Z,77.50
2019-05-17T21:09:49.422Z,82.50
2019-05-17T21:12:18.966Z,85.00
2019-05-17T21:14:48.711Z,83.50
2019-05-17T21:17:18.213Z,85.50
2019-05-17T21:19:47.957Z,81.80
2019-05-17T21:22:17.571Z,81.90
2019-05-17T21:24:47.324Z,82.70
2019-05-17T21:27:17.079Z,82.60
2019-05-17T21:29:45.920Z,84.20
2019-05-17T21:32:15.425Z,76.50
2019-05-17T21:34:44.971Z,74.10
2019-05-17T21:37:14.517Z,79.60
2019-05-17T21:39:44.114Z,72.50
2019-05-17T21:42:13.744Z,79.80
2019-05-17T21:44:43.425Z,76.20
2019-05-17T21:47:13.041Z,83.00
2019-05-17T21:49:42.681Z,79.00
2019-05-17T21:52:12.300Z,81.30
2019-05-17T21:54:41.947Z,80.60
2019-05-17T21:57:11.560Z,82.20
2019-05-17T21:59:41.113Z,73.80
2019-05-17T22:02:10.851Z,79.30
2019-05-17T22:04:39.705Z,77.00
2019-05-17T22:07:09.494Z,81.30
2019-05-17T22:09:39.034Z,82.40
2019-05-17T22:12:10.285Z,81.30
2019-05-17T22:14:39.891Z,84.20
2019-05-17T22:17:09.897Z,86.10
2019-05-17T22:19:39.598Z,81.20
2019-05-17T22:22:09.211Z,85.50
2019-05-17T22:24:38.781Z,80.10
2019-05-17T22:27:08.383Z,79.20
2019-05-17T22:29:37.919Z,82.20
2019-05-17T22:32:07.501Z,83.80
2019-05-17T22:34:37.162Z,84.20
2019-05-17T22:37:06.773Z,88.20
2019-05-17T22:39:36.316Z,84.10
2019-05-17T22:42:05.991Z,81.70
2019-05-17T22:44:36.241Z,80.50
2019-05-17T22:47:06.022Z,84.30
2019-05-17T22:49:34.883Z,78.90
2019-05-17T22:52:04.483Z,81.10
2019-05-17T22:54:34.039Z,77.20
2019-05-17T22:57:03.605Z,77.60
2019-05-17T22:59:33.143Z,75.00
2019-05-17T23:02:02.732Z,80.70
2019-05-17T23:04:32.298Z,80.00
2019-05-17T23:07:01.839Z,77.30
2019-05-17T23:09:31.392Z,81.90
2019-05-17T23:12:00.927Z,74.90
2019-05-17T23:14:31.491Z,76.50
2019-05-17T23:17:01.033Z,80.90
2019-05-17T23:19:30.577Z,75.00
2019-05-17T23:22:00.193Z,75.40
2019-05-17T23:24:29.749Z,78.30
2019-05-17T23:26:59.312Z,74.40
2019-05-17T23:29:29.103Z,77.80
2019-05-17T23:31:57.875Z,78.80
2019-05-17T23:34:28.323Z,74.90
2019-05-17T23:36:57.878Z,77.10
2019-05-17T23:39:27.473Z,83.00
2019-05-17T23:41:57.154Z,83.70
2019-05-17T23:44:26.766Z,82.80
2019-05-17T23:47:06.589Z,81.20
2019-05-17T23:49:27.484Z,78.00
2019-05-17T23:51:57.027Z,78.90
2019-05-17T23:54:26.559Z,79.90
2019-05-17T23:56:56.105Z,75.60
2019-05-17T23:59:25.720Z,80.70
